createdAt,value
2019-03-24T00:00:23.256Z,37.75
2019-03-24T00:04:26.933Z,47.45
2019-03-24T00:08:30.571Z,52.15
2019-03-24T00:12:34.177Z,38.38
2019-03-24T00:16:37.809Z,56.28
2019-03-24T00:20:41.417Z,40.73
2019-03-24T00:24:45.020Z,38.85
2019-03-24T00:28:48.608Z,45.63
2019-03-24T00:32:52.231Z,49.83
2019-03-24T00:36:55.924Z,49.77
2019-03-24T00:40:59.529Z,44.63
2019-03-24T00:45:03.971Z,48.10
2019-03-24T00:49:07.597Z,40.00
2019-03-24T00:53:11.140Z,32.90
2019-03-24T00:57:14.960Z,45.12
2019-03-24T01:01:19.740Z,54.80
2019-03-24T01:05:23.350Z,41.53
2019-03-24T01:09:27.231Z,37.30
2019-03-24T01:13:30.815Z,43.10
2019-03-24T01:17:34.424Z,53.95
2019-03-24T01:21:38.029Z,41.53
2019-03-24T01:25:41.634Z,39.98
2019-03-24T01:29:45.235Z,41.63
2019-03-24T01:33:48.836Z,49.75
2019-03-24T01:37:52.456Z,41.53
2019-03-24T01:41:56.061Z,31.27
2019-03-24T01:45:59.685Z,47.43
2019-03-24T01:50:04.533Z,38.40
2019-03-24T01:54:08.142Z,33.48
2019-03-24T01:58:11.746Z,33.30
2019-03-24T02:02:15.354Z,39.78
2019-03-24T02:06:18.980Z,31.17
2019-03-24T02:10:22.653Z,25.57
2019-03-24T02:14:26.235Z,37.00
2019-03-24T02:18:30.213Z,33.00
2019-03-24T02:22:33.817Z,43.55
2019-03-24T02:26:37.416Z,32.08
2019-03-24T02:30:41.036Z,28.35
2019-03-24T02:34:44.616Z,31.85
2019-03-24T02:38:48.218Z,18.67
2019-03-24T02:42:51.817Z,26.45
2019-03-24T02:46:55.490Z,28.52
2019-03-24T02:50:59.101Z,27.80
2019-03-24T02:55:02.695Z,27.10
2019-03-24T02:59:06.298Z,38.20
2019-03-24T03:03:10.098Z,24.90
2019-03-24T03:07:13.691Z,30.27
2019-03-24T03:11:17.375Z,47.93
2019-03-24T03:15:20.996Z,32.13
2019-03-24T03:19:24.581Z,38.73
2019-03-24T03:23:28.248Z,44.53
2019-03-24T03:27:31.897Z,37.42
2019-03-24T03:31:35.501Z,39.55
2019-03-24T03:35:39.186Z,59.75
2019-03-24T03:39:42.781Z,52.95
2019-03-24T03:43:46.384Z,29.25
2019-03-24T03:47:49.994Z,30.30
2019-03-24T03:51:53.598Z,52.05
2019-03-24T03:55:57.205Z,39.50
2019-03-24T04:00:00.787Z,49.35
2019-03-24T04:04:04.397Z,49.65
2019-03-24T04:08:08.142Z,39.63
2019-03-24T04:12:12.163Z,45.04
2019-03-24T04:16:15.766Z,30.50
2019-03-24T04:20:19.353Z,26.70
2019-03-24T04:24:22.938Z,35.23
2019-03-24T04:28:26.554Z,29.53
2019-03-24T04:32:30.174Z,33.33
2019-03-24T04:36:33.763Z,35.00
2019-03-24T04:40:37.339Z,44.03
2019-03-24T04:44:40.929Z,42.20
2019-03-24T04:48:44.536Z,39.05
2019-03-24T04:52:48.154Z,41.55
2019-03-24T04:56:51.764Z,29.52
2019-03-24T05:00:55.378Z,25.08
2019-03-24T05:04:59.005Z,44.53
2019-03-24T05:09:04.129Z,34.88
2019-03-24T05:13:07.740Z,30.65
2019-03-24T05:17:11.348Z,25.02
2019-03-24T05:21:14.976Z,36.83
2019-03-24T05:25:18.557Z,47.40
2019-03-24T05:29:22.179Z,41.30
2019-03-24T05:33:25.776Z,34.03
2019-03-24T05:37:29.393Z,40.43
2019-03-24T05:41:32.996Z,31.60
2019-03-24T05:45:36.587Z,43.70
2019-03-24T05:49:40.204Z,45.10
2019-03-24T05:53:43.815Z,27.70
2019-03-24T05:57:47.416Z,31.82
2019-03-24T06:01:51.023Z,31.87
2019-03-24T06:05:54.603Z,42.88
2019-03-24T06:09:58.184Z,41.55
2019-03-24T06:14:03.350Z,35.33
2019-03-24T06:18:06.955Z,32.42
2019-03-24T06:22:10.566Z,47.30
2019-03-24T06:26:14.170Z,41.02
2019-03-24T06:30:17.822Z,40.20
2019-03-24T06:34:21.425Z,40.55
2019-03-24T06:38:25.037Z,41.40
2019-03-24T06:42:28.646Z,43.65
2019-03-24T06:46:32.256Z,49.90
2019-03-24T06:50:35.849Z,51.33
2019-03-24T06:54:39.496Z,47.40
2019-03-24T06:58:43.101Z,47.70
2019-03-24T07:02:46.713Z,46.33
2019-03-24T07:06:50.323Z,40.63
2019-03-24T07:10:53.909Z,69.37
2019-03-24T07:14:57.524Z,63.63
2019-03-24T07:19:01.137Z,51.88
2019-03-24T07:23:04.749Z,52.33
2019-03-24T07:27:08.353Z,44.60
2019-03-24T07:31:11.932Z,46.42
2019-03-24T07:35:15.507Z,48.52
2019-03-24T07:39:19.128Z,40.85
2019-03-24T07:43:22.764Z,36.08
2019-03-24T07:47:26.476Z,40.35
2019-03-24T07:51:30.088Z,52.43
2019-03-24T07:55:33.667Z,35.20
2019-03-24T07:59:37.271Z,43.65
2019-03-24T08:03:40.890Z,37.58
2019-03-24T08:07:44.493Z,40.78
2019-03-24T08:11:48.105Z,34.05
2019-03-24T08:15:51.697Z,40.35
2019-03-24T08:19:55.308Z,34.03
2019-03-24T08:23:58.942Z,38.78
2019-03-24T08:28:02.560Z,35.88
2019-03-24T08:32:06.176Z,49.88
2019-03-24T08:36:09.765Z,37.42
2019-03-24T08:40:13.374Z,47.20
2019-03-24T08:44:16.976Z,31.87
2019-03-24T08:48:20.589Z,35.20
2019-03-24T08:52:24.292Z,27.17
2019-03-24T08:56:27.877Z,39.03
2019-03-24T09:00:31.534Z,32.60
2019-03-24T09:04:35.160Z,24.55
2019-03-24T09:08:38.760Z,25.80
2019-03-24T09:12:42.456Z,26.42
2019-03-24T09:16:46.050Z,24.15
2019-03-24T09:20:49.644Z,19.35
2019-03-24T09:24:53.253Z,28.55
2019-03-24T09:28:59.132Z,22.07
2019-03-24T09:33:02.116Z,26.13
2019-03-24T09:37:05.706Z,23.45
2019-03-24T09:41:09.306Z,26.37
2019-03-24T09:45:12.905Z,20.10
2019-03-24T09:49:16.518Z,31.73
2019-03-24T09:53:20.200Z,17.98
2019-03-24T09:57:23.775Z,22.42
2019-03-24T10:01:27.362Z,14.10
2019-03-24T10:05:30.997Z,23.75
2019-03-24T10:09:34.603Z,16.97
2019-03-24T10:13:38.221Z,27.93
2019-03-24T10:17:41.819Z,23.87
2019-03-24T10:21:45.404Z,24.30
2019-03-24T10:25:49.096Z,25.17
2019-03-24T10:29:52.779Z,23.10
2019-03-24T10:33:56.378Z,23.60
2019-03-24T10:37:59.956Z,30.30
2019-03-24T10:42:03.540Z,24.98
2019-03-24T10:46:07.277Z,26.68
2019-03-24T10:50:11.212Z,22.47
2019-03-24T10:54:14.867Z,24.97
2019-03-24T10:58:18.432Z,18.30
2019-03-24T11:02:22.059Z,22.10
2019-03-24T11:06:25.665Z,25.25
2019-03-24T11:10:29.267Z,19.43
2019-03-24T11:14:32.872Z,15.93
2019-03-24T11:18:36.510Z,19.40
2019-03-24T11:22:40.080Z,23.07
2019-03-24T11:26:43.829Z,26.87
2019-03-24T11:30:47.438Z,21.48
2019-03-24T11:34:51.036Z,12.98
2019-03-24T11:38:54.642Z,20.97
2019-03-24T11:42:58.232Z,25.37
2019-03-24T11:47:01.846Z,17.60
2019-03-24T11:51:05.443Z,15.43
2019-03-24T11:55:09.590Z,17.02
2019-03-24T11:59:13.201Z,17.05
2019-03-24T12:03:16.781Z,9.88
2019-03-24T12:07:20.385Z,12.23
2019-03-24T12:11:23.992Z,14.93
2019-03-24T12:15:27.604Z,16.42
2019-03-24T12:19:31.206Z,18.48
2019-03-24T12:23:35.053Z,20.40
2019-03-24T12:27:38.656Z,21.95
2019-03-24T12:31:42.268Z,18.25
2019-03-24T12:35:45.872Z,19.70
2019-03-24T12:39:49.498Z,21.10
2019-03-24T12:43:53.124Z,16.93
2019-03-24T12:47:56.707Z,17.82
2019-03-24T12:52:00.380Z,14.60
2019-03-24T12:56:04.033Z,15.05
2019-03-24T13:00:09.588Z,15.32
2019-03-24T13:04:13.180Z,12.85
2019-03-24T13:08:17.462Z,19.00
2019-03-24T13:12:21.066Z,14.50
2019-03-24T13:16:24.714Z,27.33
2019-03-24T13:20:38.115Z,18.63
2019-03-24T13:24:33.558Z,17.23
2019-03-24T13:28:37.135Z,12.88
2019-03-24T13:32:40.752Z,14.38
2019-03-24T13:36:44.448Z,18.87
2019-03-24T13:40:48.392Z,20.67
2019-03-24T13:44:52.541Z,10.85
2019-03-24T13:48:56.137Z,10.98
2019-03-24T13:52:59.813Z,10.40
2019-03-24T13:57:03.425Z,10.35
2019-03-24T14:01:07.823Z,7.97
2019-03-24T14:05:11.383Z,8.48
2019-03-24T14:09:15.057Z,8.75
2019-03-24T14:13:18.651Z,8.67
2019-03-24T14:17:22.260Z,7.85
2019-03-24T14:21:25.867Z,13.03
2019-03-24T14:25:29.441Z,9.65
2019-03-24T14:29:33.024Z,12.85
2019-03-24T14:33:36.631Z,12.03
2019-03-24T14:37:40.251Z,14.53
2019-03-24T14:41:43.921Z,12.10
2019-03-24T14:45:47.492Z,7.62
2019-03-24T14:49:51.081Z,12.00
2019-03-24T14:53:54.960Z,7.50
2019-03-24T14:57:58.930Z,8.53
2019-03-24T15:02:02.791Z,6.92
2019-03-24T15:06:06.426Z,5.47
2019-03-24T15:10:10.858Z,6.55
2019-03-24T15:14:14.492Z,4.55
2019-03-24T15:18:18.231Z,12.78
2019-03-24T15:22:22.030Z,7.72
2019-03-24T15:26:25.730Z,6.15
2019-03-24T15:30:29.574Z,5.55
2019-03-24T15:34:33.187Z,9.60
2019-03-24T15:38:37.099Z,9.28
2019-03-24T15:42:40.709Z,11.43
2019-03-24T15:46:44.316Z,9.38
2019-03-24T15:50:48.096Z,3.65
2019-03-24T15:54:52.109Z,6.27
2019-03-24T15:58:55.666Z,10.45
2019-03-24T16:03:00.586Z,5.47
2019-03-24T16:07:04.524Z,13.50
2019-03-24T16:11:08.378Z,10.13
2019-03-24T16:15:12.465Z,6.62
2019-03-24T16:19:16.342Z,9.43
2019-03-24T16:23:20.334Z,8.70
2019-03-24T16:27:24.186Z,8.80
2019-03-24T16:31:27.803Z,8.60
2019-03-24T16:35:31.405Z,8.50
2019-03-24T16:39:35.013Z,12.53
2019-03-24T16:43:38.664Z,9.23
2019-03-24T16:47:42.823Z,9.93
2019-03-24T16:51:46.391Z,14.53
2019-03-24T16:55:50.018Z,12.78
2019-03-24T16:59:53.615Z,11.20
2019-03-24T17:03:57.462Z,7.53
2019-03-24T17:08:01.353Z,11.48
2019-03-24T17:12:04.974Z,9.68
2019-03-24T17:16:08.623Z,9.30
2019-03-24T17:20:12.364Z,12.93
2019-03-24T17:24:15.975Z,15.55
2019-03-24T17:28:19.574Z,11.50
2019-03-24T17:32:23.147Z,12.20
2019-03-24T17:36:26.735Z,7.53
2019-03-24T17:40:30.400Z,13.03
2019-03-24T17:44:33.996Z,13.58
2019-03-24T17:48:37.602Z,13.75
2019-03-24T17:52:41.544Z,14.68
2019-03-24T17:56:45.196Z,17.52
2019-03-24T18:00:50.577Z,9.03
2019-03-24T18:04:54.191Z,13.83
2019-03-24T18:08:57.784Z,9.65
2019-03-24T18:13:01.632Z,11.88
2019-03-24T18:17:05.741Z,10.63
2019-03-24T18:21:09.591Z,13.18
2019-03-24T18:25:13.370Z,17.82
2019-03-24T18:29:18.631Z,15.20
2019-03-24T18:33:22.681Z,19.87
2019-03-24T18:37:26.256Z,17.82
2019-03-24T18:41:29.855Z,14.07
2019-03-24T18:45:33.462Z,13.45
2019-03-24T18:49:37.063Z,7.42
2019-03-24T18:53:40.643Z,10.90
2019-03-24T18:57:44.222Z,5.60
2019-03-24T19:01:47.826Z,11.55
2019-03-24T19:05:51.437Z,12.73
2019-03-24T19:09:55.032Z,9.20
2019-03-24T19:13:58.616Z,12.45
2019-03-24T19:18:02.337Z,17.82
2019-03-24T19:22:05.942Z,12.70
2019-03-24T19:26:09.549Z,12.37
2019-03-24T19:30:18.516Z,17.27
2019-03-24T19:34:22.056Z,18.70
2019-03-24T19:38:26.034Z,12.07
2019-03-24T19:42:30.194Z,19.37
2019-03-24T19:46:33.906Z,18.20
2019-03-24T19:50:37.980Z,13.22
2019-03-24T19:54:42.136Z,15.10
2019-03-24T19:58:46.040Z,18.10
2019-03-24T20:02:50.013Z,16.40
2019-03-24T20:06:54.097Z,15.23
2019-03-24T20:10:57.760Z,17.17
2019-03-24T20:15:01.391Z,19.75
2019-03-24T20:19:05.214Z,11.15
2019-03-24T20:23:08.936Z,18.07
2019-03-24T20:27:12.857Z,15.93
2019-03-24T20:31:16.662Z,9.97
2019-03-24T20:35:20.254Z,11.78
2019-03-24T20:39:23.983Z,15.23
2019-03-24T20:43:27.725Z,23.38
2019-03-24T20:47:31.755Z,16.32
2019-03-24T20:51:35.452Z,21.45
2019-03-24T20:55:39.268Z,17.05
2019-03-24T20:59:42.952Z,26.90
2019-03-24T21:03:46.590Z,12.87
2019-03-24T21:07:50.505Z,20.87
2019-03-24T21:11:55.386Z,14.07
2019-03-24T21:15:59.429Z,16.00
2019-03-24T21:20:03.524Z,22.77
2019-03-24T21:24:07.474Z,17.80
2019-03-24T21:33:14.956Z,15.57
2019-03-24T21:37:18.553Z,15.78
2019-03-24T21:41:22.155Z,20.57
2019-03-24T21:45:25.732Z,23.95
2019-03-24T21:49:29.324Z,22.58
2019-03-24T21:53:40.590Z,13.98
2019-03-24T21:57:38.152Z,17.43
2019-03-24T22:01:41.736Z,17.65
2019-03-24T22:05:45.314Z,12.40
2019-03-24T22:09:48.891Z,19.27
2019-03-24T22:13:52.474Z,15.90
2019-03-24T22:17:56.056Z,21.52
2019-03-24T22:21:59.652Z,19.12
2019-03-24T22:26:03.285Z,17.67
2019-03-24T22:30:08.208Z,13.53
2019-03-24T22:34:11.779Z,13.27
2019-03-24T22:38:15.359Z,14.65
2019-03-24T22:42:18.937Z,15.65
2019-03-24T22:46:22.515Z,15.97
2019-03-24T22:50:27.501Z,11.20
2019-03-24T22:54:31.055Z,17.50
2019-03-24T22:58:34.731Z,14.87
2019-03-24T23:02:38.355Z,18.98
2019-03-24T23:06:42.390Z,14.50
2019-03-24T23:10:46.491Z,14.43
2019-03-24T23:14:50.053Z,12.23
2019-03-24T23:18:53.634Z,16.30
2019-03-24T23:22:57.221Z,13.28
2019-03-24T23:27:00.798Z,12.05
2019-03-24T23:31:04.668Z,10.58
2019-03-24T23:35:08.414Z,9.38
2019-03-24T23:39:12.332Z,12.63
2019-03-24T23:43:15.914Z,12.65
2019-03-24T23:47:19.487Z,12.50
2019-03-24T23:51:23.754Z,13.65
2019-03-24T23:55:27.264Z,12.58
2019-03-24T23:59:30.992Z,12.95
